createdAt,value
2023-04-18T00:01:55.002Z,10.37
2023-04-18T00:04:22.929Z,10.57
2023-04-18T00:06:52.224Z,10.97
2023-04-18T00:09:20.060Z,10.60
2023-04-18T00:11:48.531Z,10.07
2023-04-18T00:14:16.488Z,10.27
2023-04-18T00:16:44.497Z,10.13
2023-04-18T00:19:14.200Z,9.57
2023-04-18T00:21:44.591Z,9.30
2023-04-18T00:24:12.937Z,9.20
2023-04-18T00:26:41.108Z,9.33
2023-04-18T00:29:08.954Z,8.17
2023-04-18T00:31:36.742Z,8.63
2023-04-18T00:34:04.543Z,7.87
2023-04-18T00:36:33.698Z,8.33
2023-04-18T00:39:01.535Z,8.43
2023-04-18T00:41:31.308Z,7.83
2023-04-18T00:43:59.152Z,8.20
2023-04-18T00:46:26.992Z,8.03
2023-04-18T00:48:55.022Z,7.63
2023-04-18T00:51:22.916Z,7.17
2023-04-18T00:53:52.364Z,7.57
2023-04-18T00:56:20.386Z,6.53
2023-04-18T00:58:48.494Z,6.90
2023-04-18T01:01:16.368Z,7.37
2023-04-18T01:03:44.957Z,7.27
2023-04-18T01:06:13.403Z,6.93
2023-04-18T01:08:41.857Z,6.40
2023-04-18T01:11:11.479Z,6.93
2023-04-18T01:13:39.329Z,6.67
2023-04-18T01:16:07.637Z,5.77
2023-04-18T01:18:35.448Z,6.13
2023-04-18T01:21:03.397Z,6.73
2023-04-18T01:23:31.589Z,6.97
2023-04-18T01:26:00.866Z,6.23
2023-04-18T01:28:29.776Z,5.90
2023-04-18T01:30:57.661Z,5.90
2023-04-18T01:33:25.627Z,6.73
2023-04-18T01:35:53.507Z,6.20
2023-04-18T01:38:21.357Z,6.30
2023-04-18T01:40:50.830Z,6.90
2023-04-18T01:43:20.022Z,6.90
2023-04-18T01:45:47.811Z,6.07
2023-04-18T01:48:15.765Z,6.13
2023-04-18T01:50:43.642Z,6.70
2023-04-18T01:53:11.656Z,6.13
2023-04-18T01:55:39.406Z,6.20
2023-04-18T01:58:07.341Z,6.00
2023-04-18T02:00:36.593Z,5.80
2023-04-18T02:03:04.902Z,6.73
2023-04-18T02:05:32.974Z,6.33
2023-04-18T02:08:00.786Z,6.53
2023-04-18T02:10:28.658Z,6.43
2023-04-18T02:12:56.504Z,6.63
2023-04-18T02:15:25.483Z,6.57
2023-04-18T02:17:59.958Z,6.23
2023-04-18T02:20:28.912Z,6.20
2023-04-18T02:22:56.704Z,6.17
2023-04-18T02:25:26.887Z,5.83
2023-04-18T02:27:54.845Z,6.30
2023-04-18T02:30:23.032Z,6.43
2023-04-18T02:32:52.970Z,6.53
2023-04-18T02:35:22.480Z,6.33
2023-04-18T02:37:50.628Z,6.60
2023-04-18T02:40:18.746Z,6.07
2023-04-18T02:42:46.838Z,5.60
2023-04-18T02:45:15.113Z,5.80
2023-04-18T02:47:54.710Z,6.47
2023-04-18T02:50:26.892Z,6.43
2023-04-18T02:52:54.717Z,5.53
2023-04-18T02:55:22.884Z,6.30
2023-04-18T02:57:50.900Z,6.33
2023-04-18T03:00:19.720Z,6.57
2023-04-18T03:02:47.630Z,5.93
2023-04-18T03:05:15.589Z,6.03
2023-04-18T03:07:44.926Z,6.07
2023-04-18T03:10:13.409Z,6.47
2023-04-18T03:12:41.279Z,6.37
2023-04-18T03:15:09.818Z,6.70
2023-04-18T03:17:37.797Z,6.20
2023-04-18T03:20:06.565Z,5.90
2023-04-18T03:22:34.473Z,6.50
2023-04-18T03:25:03.595Z,5.77
2023-04-18T03:27:31.449Z,6.77
2023-04-18T03:29:59.377Z,6.17
2023-04-18T03:32:27.261Z,6.50
2023-04-18T03:34:55.951Z,5.80
2023-04-18T03:37:23.785Z,6.90
2023-04-18T03:39:51.594Z,6.73
2023-04-18T03:42:20.781Z,6.47
2023-04-18T03:44:48.655Z,6.50
2023-04-18T03:47:16.845Z,6.13
2023-04-18T03:49:44.975Z,6.53
2023-04-18T03:52:13.457Z,6.07
2023-04-18T03:54:41.243Z,7.07
2023-04-18T03:57:09.120Z,6.87
2023-04-18T03:59:38.459Z,6.47
2023-04-18T04:02:06.398Z,6.93
2023-04-18T04:04:34.302Z,7.03
2023-04-18T04:07:02.446Z,7.43
2023-04-18T04:09:30.278Z,7.23
2023-04-18T04:11:58.081Z,7.27
2023-04-18T04:14:25.918Z,6.60
2023-04-18T04:16:55.229Z,7.07
2023-04-18T04:19:23.218Z,7.03
2023-04-18T04:21:51.281Z,7.30
2023-04-18T04:24:20.427Z,8.03
2023-04-18T04:26:48.708Z,7.13
2023-04-18T04:29:16.742Z,7.17
2023-04-18T04:31:45.051Z,7.73
2023-04-18T04:34:16.760Z,7.43
2023-04-18T04:36:45.436Z,7.77
2023-04-18T04:39:13.813Z,7.33
2023-04-18T04:41:41.740Z,7.50
2023-04-18T04:44:09.693Z,7.37
2023-04-18T04:46:40.197Z,7.83
2023-04-18T04:49:08.102Z,7.70
2023-04-18T04:51:37.329Z,7.93
2023-04-18T04:54:05.402Z,7.63
2023-04-18T04:56:33.421Z,8.43
2023-04-18T04:59:01.901Z,8.23
2023-04-18T05:01:29.804Z,7.33
2023-04-18T05:03:57.781Z,7.50
2023-04-18T05:06:25.872Z,8.10
2023-04-18T05:08:56.684Z,8.40
2023-04-18T05:11:24.756Z,7.83
2023-04-18T05:13:52.616Z,7.73
2023-04-18T05:16:20.504Z,8.40
2023-04-18T05:18:48.687Z,7.47
2023-04-18T05:21:16.547Z,8.00
2023-04-18T05:23:44.687Z,7.33
2023-04-18T05:26:13.963Z,7.50
2023-04-18T05:28:42.540Z,7.67
2023-04-18T05:31:10.622Z,7.63
2023-04-18T05:33:38.618Z,7.63
2023-04-18T05:36:07.639Z,8.90
2023-04-18T05:38:35.677Z,7.90
2023-04-18T05:41:03.554Z,8.87
2023-04-18T05:43:32.770Z,7.83
2023-04-18T05:46:00.650Z,7.97
2023-04-18T05:48:28.648Z,7.17
2023-04-18T05:50:56.531Z,8.23
2023-04-18T05:53:24.559Z,8.20
2023-04-18T05:55:52.487Z,8.20
2023-04-18T05:58:20.330Z,7.37
2023-04-18T06:00:49.958Z,8.10
2023-04-18T06:03:18.010Z,7.93
2023-04-18T06:05:46.146Z,8.17
2023-04-18T06:08:14.138Z,7.97
2023-04-18T06:10:42.322Z,8.00
2023-04-18T06:13:10.383Z,9.10
2023-04-18T06:15:38.361Z,8.93
2023-04-18T06:18:07.726Z,8.23
2023-04-18T06:20:36.139Z,7.57
2023-04-18T06:23:04.005Z,8.03
2023-04-18T06:25:31.867Z,7.53
2023-04-18T06:27:59.724Z,8.50
2023-04-18T06:30:27.596Z,8.43
2023-04-18T06:32:55.388Z,8.57
2023-04-18T06:35:26.521Z,7.87
2023-04-18T06:37:54.670Z,8.17
2023-04-18T06:40:22.500Z,8.57
2023-04-18T06:42:50.586Z,7.57
2023-04-18T06:45:18.524Z,8.37
2023-04-18T06:47:50.298Z,7.90
2023-04-18T06:50:18.383Z,8.00
2023-04-18T06:52:47.620Z,8.53
2023-04-18T06:55:15.589Z,8.00
2023-04-18T06:57:44.207Z,8.03
2023-04-18T07:00:13.114Z,8.87
2023-04-18T07:02:42.179Z,8.33
2023-04-18T07:05:10.428Z,7.87
2023-04-18T07:07:38.321Z,9.10
2023-04-18T07:10:09.785Z,8.40
2023-04-18T07:12:37.715Z,7.47
2023-04-18T07:15:06.314Z,8.00
2023-04-18T07:17:34.234Z,7.73
2023-04-18T07:20:02.124Z,7.83
2023-04-18T07:22:29.997Z,7.47
2023-04-18T07:24:57.776Z,7.80
2023-04-18T07:27:26.987Z,8.30
2023-04-18T07:29:54.816Z,7.83
2023-04-18T07:32:22.958Z,7.80
2023-04-18T07:34:51.906Z,8.00
2023-04-18T07:37:21.246Z,7.50
2023-04-18T07:39:49.691Z,7.63
2023-04-18T07:42:17.639Z,7.47
2023-04-18T07:44:46.972Z,6.90
2023-04-18T07:47:14.807Z,7.57
2023-04-18T07:49:42.974Z,6.93
2023-04-18T07:52:10.791Z,7.23
2023-04-18T07:54:38.977Z,7.87
2023-04-18T07:57:06.857Z,6.97
2023-04-18T07:59:34.689Z,7.07
2023-04-18T08:02:04.051Z,6.67
2023-04-18T08:04:32.044Z,6.43
2023-04-18T08:07:02.449Z,6.73
2023-04-18T08:09:30.672Z,6.60
2023-04-18T08:12:00.158Z,6.47
2023-04-18T08:14:28.090Z,6.20
2023-04-18T08:16:55.956Z,7.10
2023-04-18T08:19:25.152Z,6.30
2023-04-18T08:21:53.030Z,6.60
2023-04-18T08:24:20.889Z,6.33
2023-04-18T08:26:48.771Z,6.07
2023-04-18T08:29:16.653Z,6.60
2023-04-18T08:31:44.476Z,6.17
2023-04-18T08:34:12.962Z,6.57
2023-04-18T08:36:42.147Z,6.50
2023-04-18T08:39:10.377Z,6.13
2023-04-18T08:41:38.625Z,5.88
2023-04-18T08:44:07.787Z,5.43
2023-04-18T08:46:37.147Z,6.20
2023-04-18T08:49:06.177Z,5.80
2023-04-18T08:51:34.692Z,5.53
2023-04-18T08:54:08.010Z,5.80
2023-04-18T08:56:37.524Z,5.82
2023-04-18T08:59:05.464Z,5.15
2023-04-18T09:01:52.784Z,5.72
2023-04-18T09:04:37.926Z,5.03
2023-04-18T09:07:07.274Z,5.40
2023-04-18T09:09:43.836Z,5.60
2023-04-18T09:12:14.378Z,5.10
2023-04-18T09:14:45.582Z,5.30
2023-04-18T09:17:15.242Z,4.60
2023-04-18T09:19:50.337Z,4.25
2023-04-18T09:22:18.835Z,4.20
2023-04-18T09:24:55.380Z,5.28
2023-04-18T09:27:23.987Z,4.47
2023-04-18T09:29:54.748Z,4.40
2023-04-18T09:32:26.810Z,4.07
2023-04-18T09:34:58.847Z,4.63
2023-04-18T09:37:27.708Z,4.40
2023-04-18T09:40:01.148Z,4.72
2023-04-18T09:42:37.142Z,4.88
2023-04-18T09:45:07.701Z,4.40
2023-04-18T09:47:37.340Z,5.13
2023-04-18T09:50:06.878Z,4.60
2023-04-18T09:52:36.758Z,5.28
2023-04-18T09:55:07.498Z,5.32
2023-04-18T09:57:38.808Z,5.03
2023-04-18T10:00:16.710Z,4.25
2023-04-18T10:02:53.499Z,4.03
2023-04-18T10:05:25.092Z,4.43
2023-04-18T10:07:54.189Z,4.07
2023-04-18T10:10:24.051Z,3.72
2023-04-18T10:12:54.598Z,4.15
2023-04-18T10:15:24.794Z,5.20
2023-04-18T10:18:03.496Z,4.60
2023-04-18T10:20:35.327Z,4.20
2023-04-18T10:23:36.527Z,4.22
2023-04-18T10:26:06.599Z,4.05
2023-04-18T10:28:56.528Z,4.47
2023-04-18T10:31:25.474Z,4.15
2023-04-18T10:36:28.575Z,4.25
2023-04-18T10:39:02.906Z,3.72
2023-04-18T10:41:33.321Z,4.22
2023-04-18T10:44:22.570Z,3.97
2023-04-18T10:47:22.794Z,3.63
2023-04-18T10:50:06.035Z,3.97
2023-04-18T10:52:34.497Z,4.50
2023-04-18T10:55:18.332Z,4.43
2023-04-18T10:57:50.639Z,3.83
2023-04-18T11:00:21.406Z,3.88
2023-04-18T11:02:51.483Z,3.90
2023-04-18T11:05:24.677Z,4.20
2023-04-18T11:07:52.982Z,4.03
2023-04-18T11:10:22.562Z,4.57
2023-04-18T11:12:52.433Z,4.85
2023-04-18T11:15:22.487Z,5.05
2023-04-18T11:17:58.365Z,5.00
2023-04-18T11:20:26.513Z,4.68
2023-04-18T11:22:56.226Z,5.22
2023-04-18T11:25:27.552Z,5.43
2023-04-18T11:27:59.940Z,4.63
2023-04-18T11:30:28.128Z,5.32
2023-04-18T11:32:56.098Z,4.75
2023-04-18T11:35:24.228Z,5.20
2023-04-18T11:37:52.206Z,5.43
2023-04-18T11:40:20.233Z,5.57
2023-04-18T11:42:48.514Z,6.07
2023-04-18T11:45:17.739Z,5.68
2023-04-18T11:47:46.929Z,5.47
2023-04-18T11:50:15.041Z,5.97
2023-04-18T11:52:43.413Z,6.35
2023-04-18T11:55:14.853Z,6.07
2023-04-18T11:57:42.969Z,5.90
2023-04-18T12:00:13.097Z,5.53
2023-04-18T12:02:44.395Z,6.80
2023-04-18T12:05:14.931Z,6.30
2023-04-18T12:07:45.209Z,6.45
2023-04-18T12:10:25.790Z,6.57
2023-04-18T12:12:55.306Z,6.70
2023-04-18T12:15:26.998Z,7.70
2023-04-18T12:17:59.435Z,7.32
2023-04-18T12:20:34.916Z,7.10
2023-04-18T12:23:03.420Z,6.65
2023-04-18T12:25:31.772Z,6.93
2023-04-18T12:28:01.237Z,7.10
2023-04-18T12:30:31.751Z,7.32
2023-04-18T12:33:02.282Z,7.63
2023-04-18T12:35:31.461Z,8.20
2023-04-18T12:38:01.490Z,8.35
2023-04-18T12:40:31.165Z,7.53
2023-04-18T12:42:59.700Z,7.72
2023-04-18T12:45:28.535Z,7.75
2023-04-18T12:47:56.450Z,8.23
2023-04-18T12:50:27.490Z,8.73
2023-04-18T12:52:58.262Z,8.77
2023-04-18T12:55:26.794Z,8.32
2023-04-18T12:57:55.795Z,7.85
2023-04-18T13:00:25.585Z,8.13
2023-04-18T13:02:53.786Z,8.15
2023-04-18T13:05:23.177Z,8.52
2023-04-18T13:07:56.356Z,7.13
2023-04-18T13:10:29.902Z,7.78
2023-04-18T13:12:57.706Z,8.48
2023-04-18T13:15:27.407Z,8.80
2023-04-18T13:17:57.116Z,8.95
2023-04-18T13:20:25.408Z,9.00
2023-04-18T13:22:54.543Z,8.68
2023-04-18T13:25:22.481Z,9.48
2023-04-18T13:27:51.118Z,8.90
2023-04-18T13:30:19.359Z,9.27
2023-04-18T13:32:47.657Z,9.43
2023-04-18T13:35:15.817Z,9.05
2023-04-18T13:37:44.223Z,9.82
2023-04-18T13:40:14.324Z,9.75
2023-04-18T13:42:42.223Z,9.38
2023-04-18T13:45:10.724Z,9.73
2023-04-18T13:47:39.396Z,9.55
2023-04-18T13:50:08.524Z,9.02
2023-04-18T13:52:36.358Z,9.50
2023-04-18T13:55:04.841Z,10.48
2023-04-18T13:57:34.556Z,9.93
2023-04-18T14:00:02.513Z,9.65
2023-04-18T14:02:31.081Z,10.15
2023-04-18T14:04:59.341Z,9.55
2023-04-18T14:07:27.579Z,9.57
2023-04-18T14:09:57.920Z,10.30
2023-04-18T14:12:26.270Z,8.90
2023-04-18T14:14:55.536Z,9.60
2023-04-18T14:17:23.443Z,9.40
2023-04-18T14:19:51.397Z,9.65
2023-04-18T14:22:19.268Z,10.70
2023-04-18T14:24:47.334Z,9.18
2023-04-18T14:27:15.458Z,9.38
2023-04-18T14:29:43.317Z,8.95
2023-04-18T14:32:13.207Z,9.55
2023-04-18T14:34:41.075Z,9.63
2023-04-18T14:37:08.987Z,8.98
2023-04-18T14:39:37.937Z,8.85
2023-04-18T14:42:06.226Z,9.23
2023-04-18T14:44:34.529Z,9.20
2023-04-18T14:47:02.614Z,8.85
2023-04-18T14:49:31.838Z,8.90
2023-04-18T14:51:59.661Z,8.82
2023-04-18T14:54:27.473Z,9.02
2023-04-18T14:56:55.487Z,8.77
2023-04-18T14:59:27.715Z,9.18
2023-04-18T15:01:57.759Z,8.98
2023-04-18T15:04:26.025Z,8.57
2023-04-18T15:06:55.691Z,8.73
2023-04-18T15:09:25.451Z,8.57
2023-04-18T15:11:54.196Z,8.50
2023-04-18T15:14:22.018Z,9.02
2023-04-18T15:16:50.715Z,9.02
2023-04-18T15:19:18.661Z,9.05
2023-04-18T15:21:46.487Z,8.68
2023-04-18T15:24:16.447Z,8.40
2023-04-18T15:26:45.302Z,7.93
2023-04-18T15:29:16.364Z,7.97
2023-04-18T15:31:44.544Z,8.70
2023-04-18T15:34:13.688Z,8.80
2023-04-18T15:36:41.824Z,7.57
2023-04-18T15:39:10.579Z,8.27
2023-04-18T15:41:42.286Z,7.63
2023-04-18T15:44:10.281Z,8.07
2023-04-18T15:46:38.322Z,7.57
2023-04-18T15:49:06.531Z,7.70
2023-04-18T15:51:34.404Z,7.72
2023-04-18T15:54:02.264Z,7.68
2023-04-18T15:56:32.508Z,7.25
2023-04-18T15:59:04.287Z,7.35
2023-04-18T16:01:33.042Z,8.05
2023-04-18T16:04:01.063Z,7.55
2023-04-18T16:06:31.193Z,7.65
2023-04-18T16:08:59.253Z,6.97
2023-04-18T16:11:27.503Z,7.47
2023-04-18T16:13:56.192Z,8.23
2023-04-18T16:16:26.506Z,6.65
2023-04-18T16:18:54.475Z,7.22
2023-04-18T16:21:22.353Z,6.35
2023-04-18T16:23:50.473Z,7.22
2023-04-18T16:26:18.466Z,6.88
2023-04-18T16:28:48.493Z,6.93
2023-04-18T16:31:16.645Z,7.05
2023-04-18T16:33:45.967Z,7.32
2023-04-18T16:36:14.413Z,7.47
2023-04-18T16:38:42.296Z,7.28
2023-04-18T16:41:10.610Z,6.95
2023-04-18T16:43:38.482Z,6.55
2023-04-18T16:46:06.627Z,7.35
2023-04-18T16:48:34.555Z,7.43
2023-04-18T16:51:03.774Z,7.35
2023-04-18T16:53:31.614Z,7.13
2023-04-18T16:56:00.783Z,7.03
2023-04-18T16:58:28.615Z,7.07
2023-04-18T17:00:56.475Z,6.78
2023-04-18T17:03:24.352Z,6.90
2023-04-18T17:05:52.165Z,7.43
2023-04-18T17:08:21.314Z,7.70
2023-04-18T17:10:52.456Z,6.95
2023-04-18T17:13:20.279Z,6.65
2023-04-18T17:15:48.550Z,6.47
2023-04-18T17:18:16.381Z,6.80
2023-04-18T17:20:44.463Z,6.88
2023-04-18T17:23:12.553Z,7.28
2023-04-18T17:25:41.792Z,6.90
2023-04-18T17:28:09.667Z,6.93
2023-04-18T17:30:41.382Z,6.80
2023-04-18T17:33:10.462Z,6.28
2023-04-18T17:35:40.904Z,6.85
2023-04-18T17:38:10.718Z,6.55
2023-04-18T17:40:39.391Z,6.65
2023-04-18T17:43:08.669Z,7.10
2023-04-18T17:45:37.215Z,6.68
2023-04-18T17:48:05.956Z,6.32
2023-04-18T17:50:36.759Z,6.20
2023-04-18T17:53:04.678Z,6.15
2023-04-18T17:55:32.543Z,7.50
2023-04-18T17:58:00.386Z,7.10
2023-04-18T18:00:29.822Z,7.15
2023-04-18T18:02:58.110Z,6.82
2023-04-18T18:05:26.076Z,7.30
2023-04-18T18:07:56.180Z,6.18
2023-04-18T18:10:24.936Z,6.30
2023-04-18T18:12:52.983Z,7.03
2023-04-18T18:15:21.067Z,7.03
2023-04-18T18:17:50.751Z,6.20
2023-04-18T18:20:19.482Z,6.63
2023-04-18T18:22:47.597Z,6.75
2023-04-18T18:25:15.502Z,6.30
2023-04-18T18:27:43.442Z,6.82
2023-04-18T18:30:11.791Z,7.07
2023-04-18T18:32:39.767Z,6.68
2023-04-18T18:35:09.854Z,7.75
2023-04-18T18:37:37.693Z,7.38
2023-04-18T18:40:07.214Z,7.60
2023-04-18T18:42:35.236Z,6.93
2023-04-18T18:45:03.592Z,7.22
2023-04-18T18:47:31.564Z,7.13
2023-04-18T18:49:59.382Z,7.25
2023-04-18T18:52:29.778Z,6.80
2023-04-18T18:54:57.879Z,6.88
2023-04-18T18:57:26.113Z,7.30
2023-04-18T18:59:55.856Z,6.18
2023-04-18T19:02:24.297Z,6.90
2023-04-18T19:04:52.594Z,7.35
2023-04-18T19:07:22.124Z,6.95
2023-04-18T19:09:53.219Z,7.28
2023-04-18T19:12:21.067Z,5.93
2023-04-18T19:14:50.848Z,6.53
2023-04-18T19:17:21.848Z,6.80
2023-04-18T19:19:49.912Z,6.97
2023-04-18T19:22:17.939Z,7.00
2023-04-18T19:24:45.862Z,6.68
2023-04-18T19:27:15.121Z,6.85
2023-04-18T19:29:42.922Z,6.78
2023-04-18T19:32:10.858Z,6.68
2023-04-18T19:34:38.795Z,6.20
2023-04-18T19:37:07.250Z,6.78
2023-04-18T19:39:35.064Z,7.07
2023-04-18T19:42:03.813Z,6.73
2023-04-18T19:44:32.959Z,6.53
2023-04-18T19:47:00.838Z,6.07
2023-04-18T19:49:28.708Z,6.32
2023-04-18T19:51:56.646Z,6.22
2023-04-18T19:54:24.530Z,6.72
2023-04-18T19:56:52.456Z,5.88
2023-04-18T19:59:20.269Z,5.72
2023-04-18T20:01:49.839Z,6.10
2023-04-18T20:04:17.768Z,5.30
2023-04-18T20:06:45.997Z,6.37
2023-04-18T20:09:16.671Z,6.10
2023-04-18T20:11:46.393Z,5.78
2023-04-18T20:14:14.732Z,5.77
2023-04-18T20:16:42.744Z,5.50
2023-04-18T20:19:12.916Z,6.07
2023-04-18T20:21:41.157Z,5.40
2023-04-18T20:24:10.011Z,5.63
2023-04-18T20:26:38.059Z,4.83
2023-04-18T20:29:05.960Z,5.03
2023-04-18T20:31:33.832Z,5.30
2023-04-18T20:34:01.585Z,4.80
2023-04-18T20:36:31.055Z,5.43
2023-04-18T20:39:02.228Z,5.70
2023-04-18T20:41:32.004Z,5.33
2023-04-18T20:43:59.913Z,5.90
2023-04-18T20:46:27.748Z,5.63
2023-04-18T20:48:55.569Z,5.37
2023-04-18T20:51:23.460Z,5.90
2023-04-18T20:53:52.662Z,5.23
2023-04-18T20:56:20.489Z,5.70
2023-04-18T20:58:48.588Z,5.43
2023-04-18T21:01:16.484Z,5.77
2023-04-18T21:03:44.970Z,5.67
2023-04-18T21:06:13.308Z,5.50
2023-04-18T21:08:41.136Z,5.57
2023-04-18T21:11:10.554Z,5.47
2023-04-18T21:13:38.355Z,5.53
2023-04-18T21:16:07.800Z,5.80
2023-04-18T21:18:35.776Z,5.40
2023-04-18T21:21:03.596Z,5.43
2023-04-18T21:23:31.440Z,5.17
2023-04-18T21:25:59.253Z,5.83
2023-04-18T21:28:28.457Z,5.70
2023-04-18T21:30:56.303Z,5.60
2023-04-18T21:33:24.507Z,5.40
2023-04-18T21:35:52.313Z,5.33
2023-04-18T21:38:20.155Z,5.23
2023-04-18T21:40:47.987Z,5.63
2023-04-18T21:43:16.071Z,6.10
2023-04-18T21:45:46.948Z,5.97
2023-04-18T21:48:15.395Z,5.40
2023-04-18T21:50:43.878Z,5.07
2023-04-18T21:53:11.711Z,5.63
2023-04-18T21:55:39.430Z,5.10
2023-04-18T21:58:07.289Z,5.30
2023-04-18T22:00:35.285Z,5.23
2023-04-18T22:03:04.653Z,5.90
2023-04-18T22:05:33.503Z,5.20
2023-04-18T22:08:02.901Z,5.80
2023-04-18T22:10:33.736Z,5.37
2023-04-18T22:13:01.711Z,5.33
2023-04-18T22:15:30.055Z,5.60
2023-04-18T22:17:59.063Z,5.47
2023-04-18T22:20:28.291Z,5.93
2023-04-18T22:22:57.080Z,5.40
2023-04-18T22:25:24.881Z,5.10
2023-04-18T22:27:52.694Z,5.70
2023-04-18T22:30:20.654Z,5.17
2023-04-18T22:32:48.771Z,5.40
2023-04-18T22:35:16.857Z,5.57
2023-04-18T22:37:46.023Z,5.50
2023-04-18T22:40:16.289Z,5.97
2023-04-18T22:42:44.569Z,4.93
2023-04-18T22:45:13.809Z,5.47
2023-04-18T22:47:41.731Z,5.77
2023-04-18T22:50:10.550Z,6.03
2023-04-18T22:52:38.360Z,5.77
2023-04-18T22:55:08.020Z,5.80
2023-04-18T22:57:35.821Z,5.77
2023-04-18T23:00:04.750Z,4.93
2023-04-18T23:02:32.658Z,5.83
2023-04-18T23:05:02.194Z,5.67
2023-04-18T23:07:30.449Z,5.43
2023-04-18T23:09:58.322Z,5.43
2023-04-18T23:12:27.778Z,6.20
2023-04-18T23:14:55.613Z,6.20
2023-04-18T23:17:23.446Z,5.60
2023-04-18T23:19:51.332Z,6.03
2023-04-18T23:22:19.219Z,5.57
2023-04-18T23:24:47.198Z,5.80
2023-04-18T23:27:15.610Z,5.87
2023-04-18T23:29:47.859Z,5.50
2023-04-18T23:32:15.986Z,5.57
2023-04-18T23:34:43.872Z,5.80
2023-04-18T23:37:11.677Z,5.87
2023-04-18T23:39:39.451Z,6.00
2023-04-18T23:42:08.061Z,5.83
2023-04-18T23:44:35.877Z,5.90
2023-04-18T23:47:05.188Z,6.27
2023-04-18T23:49:33.006Z,6.80
2023-04-18T23:52:00.855Z,6.13
2023-04-18T23:54:28.658Z,6.40
2023-04-18T23:56:57.081Z,5.77
2023-04-18T23:59:24.947Z,6.07
